createdAt,value
2018-07-09T00:01:24.433Z,2.60
2018-07-09T00:03:52.908Z,2.90
2018-07-09T00:06:21.446Z,2.77
2018-07-09T00:08:49.988Z,2.70
2018-07-09T00:11:18.411Z,2.90
2018-07-09T00:13:47.400Z,3.17
2018-07-09T00:16:15.855Z,3.15
2018-07-09T00:18:44.372Z,3.00
2018-07-09T00:21:12.786Z,3.30
2018-07-09T00:23:41.352Z,3.00
2018-07-09T00:26:09.772Z,2.95
2018-07-09T00:28:38.426Z,2.90
2018-07-09T00:31:06.944Z,2.92
2018-07-09T00:33:35.732Z,3.20
2018-07-09T00:36:04.967Z,2.75
2018-07-09T00:38:33.404Z,3.27
2018-07-09T00:41:02.446Z,3.45
2018-07-09T00:43:30.989Z,3.37
2018-07-09T00:46:00.315Z,3.35
2018-07-09T00:48:28.816Z,3.20
2018-07-09T00:50:58.114Z,2.98
2018-07-09T00:53:26.644Z,3.40
2018-07-09T00:55:55.269Z,3.55
2018-07-09T00:58:23.737Z,3.42
2018-07-09T01:00:52.131Z,3.37
2018-07-09T01:03:20.937Z,3.37
2018-07-09T01:05:49.405Z,3.27
2018-07-09T01:08:17.877Z,3.37
2018-07-09T01:10:57.527Z,3.70
2018-07-09T01:13:37.236Z,3.22
2018-07-09T01:16:05.701Z,3.83
2018-07-09T01:18:34.176Z,3.67
2018-07-09T01:21:02.712Z,3.80
2018-07-09T01:23:31.196Z,3.22
2018-07-09T01:25:59.664Z,3.75
2018-07-09T01:28:28.233Z,3.45
2018-07-09T01:30:56.690Z,4.00
2018-07-09T01:33:25.124Z,3.87
2018-07-09T01:35:53.528Z,3.95
2018-07-09T01:38:21.922Z,4.05
2018-07-09T01:40:50.317Z,3.50
2018-07-09T01:43:19.024Z,4.12
2018-07-09T01:45:47.920Z,4.05
2018-07-09T01:48:16.368Z,4.35
2018-07-09T01:50:44.893Z,4.10
2018-07-09T01:53:13.923Z,4.00
2018-07-09T01:55:42.360Z,4.20
2018-07-09T01:58:10.976Z,3.95
2018-07-09T02:00:39.477Z,4.22
2018-07-09T02:03:07.989Z,4.10
2018-07-09T02:05:36.425Z,4.25
2018-07-09T02:08:04.948Z,4.53
2018-07-09T02:10:33.357Z,4.30
2018-07-09T02:13:01.776Z,5.17
2018-07-09T02:15:30.210Z,4.90
2018-07-09T02:17:58.640Z,4.72
2018-07-09T02:20:27.126Z,4.50
2018-07-09T02:22:56.105Z,4.90
2018-07-09T02:25:24.925Z,5.22
2018-07-09T02:27:53.388Z,5.35
2018-07-09T02:30:21.905Z,5.55
2018-07-09T02:32:50.337Z,5.35
2018-07-09T02:35:18.760Z,5.65
2018-07-09T02:37:47.765Z,6.05
2018-07-09T02:40:16.248Z,5.87
2018-07-09T02:42:44.686Z,5.83
2018-07-09T02:45:13.111Z,6.10
2018-07-09T02:47:41.556Z,6.33
2018-07-09T02:50:10.078Z,6.53
2018-07-09T02:52:38.668Z,7.28
2018-07-09T02:55:07.165Z,6.87
2018-07-09T02:57:35.568Z,6.85
2018-07-09T03:00:04.089Z,7.10
2018-07-09T03:02:33.267Z,7.67
2018-07-09T03:05:01.670Z,8.03
2018-07-09T03:07:30.089Z,8.20
2018-07-09T03:09:58.499Z,7.25
2018-07-09T03:12:27.101Z,8.38
2018-07-09T03:14:56.248Z,8.43
2018-07-09T03:17:24.649Z,8.13
2018-07-09T03:19:53.175Z,8.60
2018-07-09T03:22:22.224Z,7.78
2018-07-09T03:24:51.312Z,8.48
2018-07-09T03:27:19.768Z,8.63
2018-07-09T03:29:48.270Z,9.03
2018-07-09T03:32:16.676Z,9.45
2018-07-09T03:34:45.130Z,9.63
2018-07-09T03:37:14.256Z,9.75
2018-07-09T03:39:42.816Z,9.48
2018-07-09T03:42:11.536Z,10.00
2018-07-09T03:44:39.988Z,9.85
2018-07-09T03:47:08.425Z,9.73
2018-07-09T03:49:36.874Z,9.70
2018-07-09T03:52:05.308Z,9.95
2018-07-09T03:54:33.796Z,9.28
2018-07-09T03:57:02.907Z,10.30
2018-07-09T03:59:31.347Z,9.45
2018-07-09T04:01:59.817Z,10.03
2018-07-09T04:04:28.304Z,10.05
2018-07-09T04:06:57.004Z,9.73
2018-07-09T04:09:25.696Z,9.45
2018-07-09T04:11:54.200Z,10.08
2018-07-09T04:14:22.605Z,10.30
2018-07-09T04:16:51.020Z,9.70
2018-07-09T04:19:19.909Z,9.98
2018-07-09T04:21:48.333Z,10.08
2018-07-09T04:24:16.772Z,10.65
2018-07-09T04:26:45.908Z,9.83
2018-07-09T04:29:14.329Z,10.10
2018-07-09T04:31:42.787Z,11.20
2018-07-09T04:34:11.336Z,10.05
2018-07-09T04:36:39.804Z,10.13
2018-07-09T04:39:13.457Z,10.63
2018-07-09T04:41:41.888Z,11.12
2018-07-09T04:44:10.320Z,10.20
2018-07-09T04:46:38.828Z,10.25
2018-07-09T04:49:07.248Z,11.12
2018-07-09T04:51:35.721Z,10.58
2018-07-09T04:54:04.235Z,10.63
2018-07-09T04:56:32.660Z,10.03
2018-07-09T04:59:01.531Z,10.43
2018-07-09T05:01:30.065Z,10.50
2018-07-09T05:03:58.768Z,11.45
2018-07-09T05:06:28.040Z,11.38
2018-07-09T05:08:56.516Z,11.15
2018-07-09T05:11:24.964Z,11.18
2018-07-09T05:13:53.501Z,11.25
2018-07-09T05:16:21.980Z,10.82
2018-07-09T05:18:50.416Z,11.55
2018-07-09T05:21:18.970Z,11.40
2018-07-09T05:23:47.508Z,11.78
2018-07-09T05:26:15.936Z,12.13
2018-07-09T05:28:44.741Z,12.37
2018-07-09T05:31:13.221Z,11.22
2018-07-09T05:33:41.637Z,12.05
2018-07-09T05:36:10.148Z,12.70
2018-07-09T05:38:38.679Z,12.07
2018-07-09T05:41:07.101Z,12.37
2018-07-09T05:43:36.184Z,11.57
2018-07-09T05:46:11.365Z,11.43
2018-07-09T05:48:39.856Z,12.35
2018-07-09T05:51:08.278Z,12.90
2018-07-09T05:53:36.696Z,12.10
2018-07-09T05:56:05.197Z,12.23
2018-07-09T05:58:33.859Z,11.80
2018-07-09T06:01:02.321Z,11.93
2018-07-09T06:03:30.792Z,12.93
2018-07-09T06:05:59.249Z,11.97
2018-07-09T06:08:27.776Z,10.82
2018-07-09T06:10:56.213Z,10.10
2018-07-09T06:13:24.661Z,10.72
2018-07-09T06:15:53.060Z,10.72
2018-07-09T06:18:21.613Z,10.53
2018-07-09T06:20:50.082Z,10.15
2018-07-09T06:23:18.628Z,11.35
2018-07-09T06:25:47.552Z,10.50
2018-07-09T06:28:16.248Z,9.78
2018-07-09T06:30:44.790Z,10.43
2018-07-09T06:33:13.341Z,8.88
2018-07-09T06:35:42.062Z,8.33
2018-07-09T06:38:10.548Z,9.25
2018-07-09T06:40:39.026Z,9.20
2018-07-09T06:52:52.993Z,6.40
2018-07-09T06:55:21.459Z,6.70
2018-07-09T06:57:49.913Z,6.33
2018-07-09T07:00:18.628Z,7.78
2018-07-09T07:02:47.074Z,7.17
2018-07-09T07:05:15.743Z,7.10
2018-07-09T07:07:44.252Z,5.50
2018-07-09T07:10:12.689Z,5.17
2018-07-09T07:12:42.038Z,5.40
2018-07-09T07:15:11.288Z,5.47
2018-07-09T07:17:39.697Z,4.90
2018-07-09T07:20:08.322Z,5.70
2018-07-09T07:22:36.784Z,5.15
2018-07-09T07:25:05.669Z,5.12
2018-07-09T07:27:34.173Z,4.53
2018-07-09T07:30:02.612Z,4.47
2018-07-09T07:32:31.064Z,4.67
2018-07-09T07:34:59.660Z,5.00
2018-07-09T07:37:28.148Z,4.80
2018-07-09T07:39:56.625Z,5.05
2018-07-09T07:42:25.037Z,4.70
2018-07-09T07:44:53.541Z,4.45
2018-07-09T07:47:21.927Z,4.78
2018-07-09T07:49:50.402Z,4.47
2018-07-09T07:52:19.577Z,4.87
2018-07-09T07:54:48.000Z,4.30
2018-07-09T07:57:16.438Z,4.20
2018-07-09T07:59:44.919Z,4.50
2018-07-09T08:02:13.476Z,4.35
2018-07-09T08:04:43.185Z,3.83
2018-07-09T08:07:11.767Z,3.80
2018-07-09T08:09:40.249Z,3.72
2018-07-09T08:13:00.550Z,3.70
2018-07-09T08:14:48.573Z,3.62
2018-07-09T08:17:17.077Z,4.08
2018-07-09T08:19:45.611Z,4.28
2018-07-09T08:22:14.138Z,3.67
2018-07-09T08:24:42.670Z,3.77
2018-07-09T08:27:11.072Z,3.02
2018-07-09T08:29:39.584Z,3.58
2018-07-09T08:32:08.054Z,3.30
2018-07-09T08:34:36.613Z,3.47
2018-07-09T08:37:05.040Z,3.98
2018-07-09T08:39:33.577Z,3.70
2018-07-09T08:42:01.989Z,3.80
2018-07-09T08:44:30.769Z,3.30
2018-07-09T08:46:59.240Z,3.95
2018-07-09T08:49:27.725Z,3.52
2018-07-09T08:51:56.133Z,3.40
2018-07-09T08:54:25.436Z,3.47
2018-07-09T08:56:53.933Z,3.70
2018-07-09T08:59:22.337Z,3.85
2018-07-09T09:01:50.797Z,3.80
2018-07-09T09:04:19.225Z,3.83
2018-07-09T09:06:47.679Z,4.40
2018-07-09T09:09:16.090Z,4.22
2018-07-09T09:11:44.529Z,4.45
2018-07-09T09:14:13.017Z,4.35
2018-07-09T09:16:41.601Z,5.22
2018-07-09T09:19:10.029Z,4.03
2018-07-09T09:21:38.541Z,4.90
2018-07-09T09:24:07.024Z,3.92
2018-07-09T09:26:35.779Z,3.90
2018-07-09T09:29:04.240Z,3.72
2018-07-09T09:31:32.547Z,4.33
2018-07-09T09:34:00.857Z,4.20
2018-07-09T09:36:29.333Z,3.80
2018-07-09T09:38:57.788Z,4.12
2018-07-09T09:41:26.225Z,4.80
2018-07-09T09:43:55.011Z,4.30
2018-07-09T09:46:24.208Z,4.47
2018-07-09T09:48:52.660Z,4.28
2018-07-09T09:51:21.198Z,4.85
2018-07-09T09:53:49.680Z,4.42
2018-07-09T09:56:18.199Z,5.20
2018-07-09T09:58:46.657Z,4.87
2018-07-09T10:01:15.134Z,4.72
2018-07-09T10:03:43.630Z,5.28
2018-07-09T10:06:12.470Z,5.00
2018-07-09T10:08:40.960Z,4.47
2018-07-09T10:11:10.057Z,4.03
2018-07-09T10:13:38.524Z,4.12
2018-07-09T10:16:07.210Z,4.70
2018-07-09T10:18:35.766Z,4.30
2018-07-09T10:21:04.336Z,4.50
2018-07-09T10:23:32.792Z,4.50
2018-07-09T10:26:01.257Z,5.22
2018-07-09T10:28:29.662Z,4.50
2018-07-09T10:30:58.405Z,4.40
2018-07-09T10:33:27.033Z,4.53
2018-07-09T10:35:55.460Z,4.60
2018-07-09T10:38:23.890Z,4.00
2018-07-09T10:40:52.446Z,4.78
2018-07-09T10:43:21.020Z,4.03
2018-07-09T10:45:49.509Z,4.30
2018-07-09T10:48:18.041Z,4.08
2018-07-09T10:50:46.505Z,4.55
2018-07-09T10:53:15.068Z,4.40
2018-07-09T10:55:43.582Z,4.40
2018-07-09T10:58:12.444Z,4.40
2018-07-09T11:00:40.971Z,4.62
2018-07-09T11:03:09.444Z,4.40
2018-07-09T11:05:38.653Z,5.12
2018-07-09T11:08:07.252Z,4.70
2018-07-09T11:10:35.691Z,4.60
2018-07-09T11:13:04.156Z,4.47
2018-07-09T11:15:32.576Z,4.22
2018-07-09T11:18:04.767Z,3.80
2018-07-09T11:20:32.982Z,4.25
2018-07-09T11:23:01.820Z,4.10
2018-07-09T11:25:30.168Z,4.03
2018-07-09T11:27:58.355Z,4.00
2018-07-09T11:30:26.897Z,3.90
2018-07-09T11:32:55.364Z,4.87
2018-07-09T11:35:23.749Z,4.60
2018-07-09T11:37:52.192Z,4.70
2018-07-09T11:40:20.744Z,5.03
2018-07-09T11:42:49.184Z,4.90
2018-07-09T11:45:17.641Z,4.80
2018-07-09T11:47:46.157Z,4.50
2018-07-09T11:50:14.632Z,4.30
2018-07-09T11:52:43.070Z,4.25
2018-07-09T11:55:11.576Z,3.92
2018-07-09T11:57:40.060Z,3.62
2018-07-09T12:00:08.715Z,3.40
2018-07-09T12:02:37.264Z,3.40
2018-07-09T12:05:05.966Z,3.17
2018-07-09T12:07:34.472Z,3.80
2018-07-09T12:10:03.110Z,3.42
2018-07-09T12:12:31.636Z,4.00
2018-07-09T12:15:00.165Z,3.75
2018-07-09T12:17:28.689Z,3.65
2018-07-09T12:19:57.707Z,4.53
2018-07-09T12:22:26.258Z,4.47
2018-07-09T12:24:54.655Z,4.60
2018-07-09T12:27:23.085Z,4.08
2018-07-09T12:29:51.599Z,4.03
2018-07-09T12:32:20.774Z,3.87
2018-07-09T12:34:49.817Z,3.62
2018-07-09T12:37:19.336Z,3.90
2018-07-09T12:39:47.860Z,3.67
2018-07-09T12:42:16.902Z,2.95
2018-07-09T12:44:45.356Z,2.80
2018-07-09T12:47:18.178Z,2.85
2018-07-09T12:49:46.700Z,3.00
2018-07-09T12:52:15.183Z,2.92
2018-07-09T12:54:44.370Z,3.02
2018-07-09T12:57:12.897Z,3.00
2018-07-09T12:59:42.227Z,3.10
2018-07-09T13:02:10.766Z,3.00
2018-07-09T13:04:40.169Z,3.25
2018-07-09T13:07:08.629Z,3.42
2018-07-09T13:09:37.320Z,3.60
2018-07-09T13:12:05.975Z,3.45
2018-07-09T13:14:35.426Z,3.30
2018-07-09T13:17:04.065Z,3.22
2018-07-09T13:19:32.566Z,3.50
2018-07-09T13:22:01.713Z,3.37
2018-07-09T13:24:30.237Z,3.40
2018-07-09T13:26:58.699Z,3.47
2018-07-09T13:29:27.886Z,3.08
2018-07-09T13:31:56.362Z,3.10
2018-07-09T13:34:25.055Z,2.98
2018-07-09T13:36:53.761Z,2.70
2018-07-09T13:39:22.762Z,2.60
2018-07-09T13:41:51.257Z,2.15
2018-07-09T13:44:20.202Z,2.02
2018-07-09T13:46:48.720Z,2.10
2018-07-09T13:49:20.445Z,2.15
2018-07-09T13:51:49.044Z,2.17
2018-07-09T13:54:18.306Z,2.20
2018-07-09T13:56:46.837Z,2.08
2018-07-09T13:59:16.316Z,2.30
2018-07-09T14:01:44.761Z,2.10
2018-07-09T14:04:14.038Z,2.10
2018-07-09T14:06:42.505Z,2.10
2018-07-09T14:09:11.548Z,1.90
2018-07-09T14:11:39.985Z,1.70
2018-07-09T14:14:12.979Z,1.40
2018-07-09T14:16:43.140Z,1.70
2018-07-09T14:19:23.470Z,1.57
2018-07-09T14:21:52.641Z,1.50
2018-07-09T14:24:21.233Z,1.55
2018-07-09T14:26:49.700Z,1.80
2018-07-09T14:29:18.168Z,1.40
2018-07-09T14:31:46.646Z,1.30
2018-07-09T14:34:15.185Z,1.47
2018-07-09T14:36:43.709Z,1.60
2018-07-09T14:39:12.227Z,1.47
2018-07-09T14:41:40.737Z,1.47
2018-07-09T14:44:09.741Z,1.32
2018-07-09T14:46:38.229Z,1.60
2018-07-09T14:49:07.457Z,1.60
2018-07-09T14:51:35.983Z,1.30
2018-07-09T14:54:04.472Z,1.27
2018-07-09T14:56:32.996Z,1.40
2018-07-09T14:59:01.441Z,1.35
2018-07-09T15:01:29.889Z,1.07
2018-07-09T15:03:58.437Z,1.20
2018-07-09T15:06:26.873Z,1.25
2018-07-09T15:08:55.457Z,1.40
2018-07-09T15:11:23.876Z,1.20
2018-07-09T15:13:52.350Z,1.20
2018-07-09T15:16:21.194Z,1.50
2018-07-09T15:18:49.677Z,1.75
2018-07-09T15:21:18.141Z,1.60
2018-07-09T15:23:46.572Z,1.35
2018-07-09T15:26:15.794Z,1.60
2018-07-09T15:28:44.225Z,1.60
2018-07-09T15:31:13.273Z,1.52
2018-07-09T15:33:41.726Z,1.30
2018-07-09T15:36:10.225Z,1.57
2018-07-09T15:38:38.593Z,1.57
2018-07-09T15:41:07.588Z,1.50
2018-07-09T15:44:04.229Z,1.57
2018-07-09T15:46:32.672Z,1.85
2018-07-09T15:49:01.585Z,1.80
2018-07-09T15:51:30.164Z,2.72
2018-07-09T15:53:58.628Z,1.75
2018-07-09T15:56:28.089Z,2.00
2018-07-09T15:58:56.919Z,1.87
2018-07-09T16:01:25.399Z,1.80
2018-07-09T16:03:53.971Z,2.05
2018-07-09T16:06:22.925Z,1.80
2018-07-09T16:08:51.421Z,1.82
2018-07-09T16:11:20.276Z,1.60
2018-07-09T16:13:49.666Z,1.47
2018-07-09T16:16:18.261Z,1.90
2018-07-09T16:18:46.669Z,1.85
2018-07-09T16:21:15.124Z,2.10
2018-07-09T16:23:43.629Z,2.15
2018-07-09T16:26:12.021Z,3.00
2018-07-09T16:28:45.011Z,1.80
2018-07-09T16:31:13.481Z,2.17
2018-07-09T16:33:41.950Z,1.60
2018-07-09T16:36:10.383Z,1.87
2018-07-09T16:38:38.857Z,1.70
2018-07-09T16:41:07.381Z,2.22
2018-07-09T16:43:35.938Z,2.02
2018-07-09T16:46:04.525Z,1.70
2018-07-09T16:48:32.996Z,1.70
2018-07-09T16:51:01.534Z,1.95
2018-07-09T16:53:29.976Z,1.60
2018-07-09T16:55:58.481Z,1.80
2018-07-09T16:58:26.929Z,1.72
2018-07-09T17:00:55.444Z,1.70
2018-07-09T17:03:23.920Z,1.98
2018-07-09T17:05:52.399Z,1.98
2018-07-09T17:08:20.899Z,1.70
2018-07-09T17:10:49.406Z,1.92
2018-07-09T17:13:17.930Z,2.27
2018-07-09T17:15:46.397Z,2.40
2018-07-09T17:18:15.005Z,2.25
2018-07-09T17:20:43.469Z,1.80
2018-07-09T17:23:11.981Z,1.65
2018-07-09T17:25:40.472Z,1.47
2018-07-09T17:28:09.116Z,1.80
2018-07-09T17:30:37.645Z,1.70
2018-07-09T17:33:06.130Z,1.67
2018-07-09T17:35:34.706Z,1.50
2018-07-09T17:38:03.202Z,1.42
2018-07-09T17:40:31.665Z,1.30
2018-07-09T17:42:59.834Z,2.20
2018-07-09T17:45:28.478Z,2.00
2018-07-09T17:47:56.953Z,2.08
2018-07-09T17:50:25.543Z,2.25
2018-07-09T17:52:54.070Z,1.80
2018-07-09T17:55:22.569Z,2.40
2018-07-09T17:57:51.004Z,1.90
2018-07-09T18:00:19.734Z,2.00
2018-07-09T18:02:48.348Z,1.80
2018-07-09T18:05:16.883Z,1.90
2018-07-09T18:07:45.364Z,2.02
2018-07-09T18:10:14.538Z,1.87
2018-07-09T18:12:42.991Z,1.47
2018-07-09T18:15:11.644Z,1.62
2018-07-09T18:17:40.256Z,1.85
2018-07-09T18:20:09.148Z,1.62
2018-07-09T18:22:37.883Z,1.90
2018-07-09T18:25:06.752Z,1.95
2018-07-09T18:27:35.221Z,1.82
2018-07-09T18:30:03.860Z,1.75
2018-07-09T18:32:32.925Z,2.22
2018-07-09T18:35:01.406Z,2.00
2018-07-09T18:37:29.877Z,2.10
2018-07-09T18:39:58.365Z,1.90
2018-07-09T18:42:26.829Z,2.27
2018-07-09T18:44:55.346Z,2.17
2018-07-09T18:47:23.802Z,1.90
2018-07-09T18:49:52.261Z,1.90
2018-07-09T18:52:20.741Z,1.77
2018-07-09T18:54:49.274Z,1.98
2018-07-09T18:57:17.839Z,2.62
2018-07-09T18:59:46.358Z,1.80
2018-07-09T19:02:14.865Z,1.80
2018-07-09T19:04:43.396Z,1.72
2018-07-09T19:07:26.239Z,2.05
2018-07-09T19:09:54.790Z,2.20
2018-07-09T19:12:23.727Z,2.12
2018-07-09T19:14:52.960Z,1.60
2018-07-09T19:18:02.441Z,2.35
2018-07-09T19:20:42.277Z,2.33
2018-07-09T19:23:10.266Z,1.55
2018-07-09T19:25:38.124Z,1.45
2018-07-09T19:28:06.910Z,1.40
2018-07-09T19:30:34.985Z,1.22
2018-07-09T19:33:02.628Z,1.60
2018-07-09T19:35:30.017Z,1.65
2018-07-09T19:37:57.510Z,1.60
2018-07-09T19:40:24.683Z,1.72
2018-07-09T19:42:52.028Z,1.90
2018-07-09T19:45:20.393Z,1.87
2018-07-09T19:47:48.560Z,1.60
2018-07-09T19:50:15.847Z,1.82
2018-07-09T19:52:43.156Z,1.80
2018-07-09T19:55:10.477Z,1.92
2018-07-09T19:57:38.108Z,1.52
2018-07-09T20:00:05.421Z,2.10
2018-07-09T20:02:32.774Z,1.60
2018-07-09T20:05:00.160Z,2.02
2018-07-09T20:07:27.471Z,1.60
2018-07-09T20:10:00.269Z,1.72
2018-07-09T20:12:32.957Z,2.05
2018-07-09T20:15:05.685Z,2.00
2018-07-09T20:17:35.624Z,1.95
2018-07-09T20:20:02.938Z,1.60
2018-07-09T20:22:30.274Z,1.85
2018-07-09T20:24:57.593Z,1.70
2018-07-09T20:27:24.926Z,2.02
2018-07-09T20:29:52.213Z,1.98
2018-07-09T20:32:19.832Z,2.12
2018-07-09T20:34:47.174Z,2.10
2018-07-09T20:37:14.496Z,2.33
2018-07-09T20:39:41.821Z,2.02
2018-07-09T20:42:09.130Z,1.70
2018-07-09T20:44:36.638Z,1.60
2018-07-09T20:47:03.953Z,2.33
2018-07-09T20:49:31.280Z,1.95
2018-07-09T20:51:58.603Z,1.90
2018-07-09T20:54:25.935Z,1.75
2018-07-09T20:56:53.257Z,1.87
2018-07-09T20:59:20.569Z,2.00
2018-07-09T21:01:48.000Z,2.27
2018-07-09T21:04:20.663Z,1.80
2018-07-09T21:06:47.948Z,2.12
2018-07-09T21:09:15.238Z,1.80
2018-07-09T21:11:42.543Z,1.80
2018-07-09T21:14:09.852Z,2.10
2018-07-09T21:16:37.173Z,1.72
2018-07-09T21:19:04.532Z,1.80
2018-07-09T21:21:31.851Z,2.02
2018-07-09T21:23:59.428Z,1.72
2018-07-09T21:26:26.771Z,2.00
2018-07-09T21:28:54.151Z,1.50
2018-07-09T21:31:21.420Z,1.50
2018-07-09T21:33:48.733Z,1.75
2018-07-09T21:36:16.060Z,1.98
2018-07-09T21:38:43.673Z,1.75
2018-07-09T21:41:11.635Z,1.85
2018-07-09T21:43:39.192Z,1.62
2018-07-09T21:46:06.429Z,1.72
2018-07-09T21:48:34.172Z,1.87
2018-07-09T21:51:01.445Z,1.60
2018-07-09T21:53:29.441Z,1.55
2018-07-09T21:55:56.766Z,1.80
2018-07-09T21:58:24.475Z,2.25
2018-07-09T22:03:25.633Z,1.77
2018-07-09T22:05:52.957Z,2.10
2018-07-09T22:08:20.264Z,1.80
2018-07-09T22:10:47.565Z,1.77
2018-07-09T22:13:14.896Z,1.95
2018-07-09T22:15:42.205Z,1.75
2018-07-09T22:18:09.508Z,2.15
2018-07-09T22:20:36.824Z,1.82
2018-07-09T22:23:04.132Z,2.12
2018-07-09T22:25:31.437Z,2.40
2018-07-09T22:27:58.752Z,2.17
2018-07-09T22:30:28.696Z,2.85
2018-07-09T22:32:57.259Z,2.47
2018-07-09T22:35:25.665Z,2.20
2018-07-09T22:37:54.082Z,1.70
2018-07-09T22:40:22.505Z,2.20
2018-07-09T22:42:51.071Z,2.25
2018-07-09T22:45:19.624Z,1.77
2018-07-09T22:47:48.057Z,1.80
2018-07-09T22:50:16.484Z,2.30
2018-07-09T22:52:45.016Z,2.72
2018-07-09T22:55:24.825Z,2.25
2018-07-09T22:57:53.252Z,2.17
2018-07-09T23:00:21.745Z,2.12
2018-07-09T23:03:03.356Z,2.72
2018-07-09T23:05:31.798Z,2.70
2018-07-09T23:08:00.252Z,3.33
2018-07-09T23:11:37.515Z,2.92
2018-07-09T23:16:48.040Z,3.02
2018-07-09T23:19:29.024Z,2.62
2018-07-09T23:22:08.800Z,3.10
2018-07-09T23:24:36.121Z,2.98
2018-07-09T23:27:03.519Z,2.60
2018-07-09T23:29:30.824Z,2.50
2018-07-09T23:31:58.248Z,2.50
2018-07-09T23:34:25.589Z,2.60
2018-07-09T23:36:53.036Z,2.30
2018-07-09T23:39:20.334Z,2.42
2018-07-09T23:41:47.700Z,2.67
2018-07-09T23:44:15.006Z,2.58
2018-07-09T23:46:42.454Z,2.60
2018-07-09T23:49:09.792Z,2.33
2018-07-09T23:51:37.218Z,2.15
2018-07-09T23:54:04.576Z,2.30
2018-07-09T23:58:48.493Z,2.80
